Etusivu
METAR-TAF:

METAR-TAF

Lentoasemat :

Inukjuak, Quebec, Kanada

Leveyspiiri: 58-28N, Pituuspiiri: 078-05W, korkeus merenpinnasta: 25 m

Tämänhetkinen sää

Tämä raportti tehtiin 30 minuuttia sitten, kello 22.00 UTC
Tuuli 16 kn idästä
Lämpötila -10°C
Kosteus 79%
Ilmanpaine 1015 hPa
Näkyvyys: 14.5 km
selkeää

METAR: CYPH 082200Z AUTO 08016KT 9SM CLR M10/M13 A2998 RMK SLP157

Aika: 18:30 (22:30 UTC)

Sääennuste

Tämä raportti tehtiin 4 tuntia ja 52 minuuttia sitten, kello 17.38 UTC
Ennuste voimassa 08. päivästä klo 18 UTC - 09. päivään klo 06 UTC
Tuuli 12 kn idästä
Näkyvyys: 10 km
Muutamia pilviä 3000 ft:n korkeudessa
From 09. päivästä klo 0300 UTC
Tuuli 15 kn idästä
Näkyvyys: 10 km
Hajanaisia pilviä 1000 ft:n korkeudessa
Ajoittain
09. päivästä klo 03 UTC - 09. päivään klo 06 UTC
Hajonneita pilviä 1000 ft:n korkeudessa

TAF: CYPH 081738Z 0818/0906 09012KT P6SM FEW030 FM090300 09015KT P6SM SCT010 TEMPO 0903/0906 BKN010 RMK FCST BASED ON AUTO OBS. NXT FCST BY 090000Z

Säähavainnot ja -ennusteet yli 4000 lentoasemalta (METAR- ja TAF-raportit).

Käytössä olevat sääasemat on merkitty karttaan keltaisilla ja punaisilla pisteillä.

Aseta hiiri pisteen päälle nähdäksesi sääaseman nimen.

Klikkaa sitten nähdäksesi säähavainnot ja -ennusteet.

Kartan vaihtaminen: klikkaa mustalla rastilla varustettuja vihreitä pisteitä, niin voit zoomata sisään; viivalla varustettua vihreää pistettä, niin voit zoomata ulos tai vihreitä nuolia, niin pääset viereisille kartoille.


METAR-TAF: